Time;durP1;ratioP1;P1;durP2;ratioP2;P2;SDS_P1;SDS_P2;PMS_P1;PMS_P2;Temp;Humidity;BMP_temperature;BMP_pressure;BME280_temperature;BME280_humidity;BME280_pressure;Samples;Min_cycle;Max_cycle;Signal;HPM_P1;HPM_P2
2022/05/04 00:01:47;;;;;;;12.25;6.50;;;9.30;99.90;;;;;;5057205;28;20109;-84
2022/05/04 00:04:13;;;;;;;13.93;6.63;;;9.30;99.90;;;;;;5057938;28;20385;-83
2022/05/04 00:06:39;;;;;;;17.40;6.75;;;9.30;99.90;;;;;;5057564;28;20055;-84
2022/05/04 00:09:04;;;;;;;12.95;6.40;;;9.30;99.90;;;;;;5057677;28;20419;-84
2022/05/04 00:11:30;;;;;;;12.75;6.40;;;9.20;99.90;;;;;;5057651;28;20045;-81
2022/05/04 00:13:56;;;;;;;18.20;6.47;;;9.20;99.90;;;;;;5058406;28;20100;-82
2022/05/04 00:16:21;;;;;;;18.05;6.10;;;9.20;99.90;;;;;;5042597;28;20063;-82
2022/05/04 00:18:47;;;;;;;17.48;6.60;;;9.20;99.90;;;;;;5059652;28;20032;-80
2022/05/04 00:21:13;;;;;;;14.90;6.85;;;9.20;99.90;;;;;;5042060;28;20093;-82
2022/05/04 00:23:38;;;;;;;19.05;7.63;;;9.10;99.90;;;;;;5059003;28;20024;-80
2022/05/04 00:26:04;;;;;;;15.05;6.82;;;9.10;99.90;;;;;;5058324;28;20047;-83
2022/05/04 00:28:30;;;;;;;13.73;6.00;;;9.00;99.90;;;;;;5039139;28;20025;-79
2022/05/04 00:30:56;;;;;;;12.45;5.55;;;8.90;99.90;;;;;;5062136;28;20017;-84
2022/05/04 00:33:21;;;;;;;12.55;6.65;;;8.90;99.90;;;;;;5063743;28;20488;-82
2022/05/04 00:35:50;;;;;;;8.43;5.10;;;8.80;99.90;;;;;;5042324;28;20025;-81
2022/05/04 00:38:15;;;;;;;12.68;5.72;;;8.60;99.90;;;;;;5060267;28;20087;-81
2022/05/04 00:40:41;;;;;;;10.63;5.53;;;8.60;99.90;;;;;;5060806;28;20032;-84
2022/05/04 00:43:23;;;;;;;17.17;6.53;;;8.50;99.90;;;;;;5060915;28;20048;-84
2022/05/04 00:45:50;;;;;;;11.75;6.10;;;8.40;99.90;;;;;;5042126;28;20021;-81
2022/05/04 00:48:15;;;;;;;14.20;7.05;;;8.40;99.90;;;;;;5060295;28;20025;-83
2022/05/04 00:50:42;;;;;;;11.48;6.13;;;8.40;99.90;;;;;;5060871;28;20067;-85
2022/05/04 00:53:08;;;;;;;14.80;6.88;;;8.40;99.90;;;;;;5042088;28;20044;-84
2022/05/04 00:55:33;;;;;;;12.13;6.55;;;8.40;99.90;;;;;;5042434;28;20036;-84
2022/05/04 01:00:45;;;;;;;12.20;6.50;;;8.30;99.90;;;;;;5060554;28;20484;-82
2022/05/04 01:03:11;;;;;;;10.30;6.43;;;8.20;99.90;;;;;;5059090;28;20025;-85
2022/05/04 01:05:36;;;;;;;12.68;6.43;;;8.20;99.90;;;;;;5059125;28;20381;-84
2022/05/04 01:08:02;;;;;;;13.80;6.55;;;8.20;99.90;;;;;;5041534;28;20495;-85
2022/05/04 01:10:28;;;;;;;12.45;6.50;;;8.10;99.90;;;;;;5059408;28;20418;-83
2022/05/04 01:12:54;;;;;;;13.15;6.32;;;8.20;99.90;;;;;;5059186;28;20029;-81
2022/05/04 01:15:22;;;;;;;12.82;6.30;;;8.20;99.90;;;;;;5059291;28;20029;-84
2022/05/04 01:17:48;;;;;;;12.88;7.38;;;8.20;99.90;;;;;;5060925;28;20389;-80
2022/05/04 01:20:15;;;;;;;14.70;7.00;;;8.20;99.90;;;;;;5059031;28;20025;-85
2022/05/04 01:22:41;;;;;;;13.20;6.55;;;8.20;99.90;;;;;;5059697;28;20021;-82
2022/05/04 01:25:07;;;;;;;14.13;7.70;;;8.20;99.90;;;;;;5040849;28;20110;-82
2022/05/04 01:27:33;;;;;;;9.13;6.10;;;8.20;99.90;;;;;;5059297;28;20033;-83
2022/05/04 01:29:59;;;;;;;13.98;7.22;;;8.20;99.90;;;;;;5042202;28;20108;-83
2022/05/04 01:32:25;;;;;;;15.32;6.43;;;8.20;99.90;;;;;;5059351;28;20082;-81
2022/05/04 01:34:51;;;;;;;13.52;6.20;;;8.10;99.90;;;;;;5059068;28;20025;-83
2022/05/04 01:37:17;;;;;;;16.60;6.05;;;8.10;99.90;;;;;;5059467;28;20026;-82
2022/05/04 01:39:43;;;;;;;14.25;6.72;;;8.10;99.90;;;;;;5060341;28;20036;-83
2022/05/04 01:42:16;;;;;;;12.23;5.82;;;8.00;99.90;;;;;;5041671;28;20025;-82
2022/05/04 01:44:43;;;;;;;17.83;6.97;;;8.00;99.90;;;;;;5059303;28;20032;-83
2022/05/04 01:47:09;;;;;;;12.95;6.20;;;8.00;99.90;;;;;;5041153;28;20117;-84
2022/05/04 01:49:35;;;;;;;23.25;8.02;;;7.90;99.90;;;;;;5059134;28;20488;-84
2022/05/04 01:52:01;;;;;;;20.70;7.10;;;7.90;99.90;;;;;;5060688;28;20060;-80
2022/05/04 01:54:27;;;;;;;17.50;6.95;;;7.90;99.90;;;;;;5060075;28;20405;-84
2022/05/04 01:56:52;;;;;;;15.27;7.43;;;7.90;99.90;;;;;;5043422;28;20092;-83
2022/05/04 01:59:18;;;;;;;12.75;6.80;;;7.80;99.90;;;;;;5046473;28;20033;-82
2022/05/04 02:01:44;;;;;;;15.57;6.40;;;7.80;99.90;;;;;;5066603;28;20413;-82
2022/05/04 02:04:10;;;;;;;12.75;6.47;;;7.70;99.90;;;;;;5058487;28;20055;-81
2022/05/04 02:06:37;;;;;;;10.95;6.40;;;7.60;99.90;;;;;;5058245;28;20033;-83
2022/05/04 02:09:03;;;;;;;16.02;7.28;;;7.60;99.90;;;;;;5058077;28;20112;-84
2022/05/04 02:11:32;;;;;;;13.98;7.45;;;7.50;99.90;;;;;;5038331;28;20055;-84
2022/05/04 02:14:00;;;;;;;11.63;6.85;;;7.40;99.90;;;;;;5038954;28;20021;-82
2022/05/04 02:16:26;;;;;;;12.65;6.18;;;7.40;99.90;;;;;;5020623;28;20428;-85
2022/05/04 02:18:52;;;;;;;10.68;6.80;;;7.30;99.90;;;;;;5037986;28;20063;-83
2022/05/04 02:21:18;;;;;;;11.13;6.15;;;7.20;99.90;;;;;;5037986;28;20124;-82
2022/05/04 02:23:44;;;;;;;13.43;6.85;;;7.20;99.90;;;;;;5020272;28;20044;-84
2022/05/04 02:26:09;;;;;;;18.88;6.95;;;7.20;99.90;;;;;;5021161;28;20075;-84
2022/05/04 02:28:35;;;;;;;14.93;7.38;;;7.20;99.90;;;;;;5038391;28;20367;-84
2022/05/04 02:31:01;;;;;;;15.00;7.28;;;7.10;99.90;;;;;;5038297;28;20025;-84
2022/05/04 02:33:26;;;;;;;12.40;6.57;;;7.10;99.90;;;;;;5020215;28;20048;-85
2022/05/04 02:38:36;;;;;;;14.50;6.85;;;7.00;99.90;;;;;;5040313;28;20099;-83
2022/05/04 02:41:02;;;;;;;12.70;6.72;;;7.00;99.90;;;;;;5039462;28;20420;-85
2022/05/04 02:43:28;;;;;;;14.98;7.97;;;6.90;99.90;;;;;;5039481;28;20021;-85
2022/05/04 02:45:54;;;;;;;11.18;6.40;;;6.90;99.90;;;;;;5041795;28;20028;-84
2022/05/04 02:48:20;;;;;;;17.60;8.02;;;6.90;99.90;;;;;;5046445;28;20077;-83
2022/05/04 02:50:45;;;;;;;13.15;7.22;;;7.00;99.90;;;;;;5028217;28;20029;-81
2022/05/04 02:53:11;;;;;;;14.32;6.63;;;7.00;99.90;;;;;;5022044;28;20470;-83
2022/05/04 02:55:37;;;;;;;22.10;7.35;;;7.00;99.90;;;;;;5018202;28;20029;-83
2022/05/04 02:58:02;;;;;;;14.75;7.70;;;7.00;99.90;;;;;;5017695;28;20025;-81
2022/05/04 03:00:28;;;;;;;14.45;7.30;;;6.90;99.90;;;;;;5017752;28;20064;-83
2022/05/04 03:02:57;;;;;;;12.85;6.90;;;6.90;99.90;;;;;;5039638;28;20024;-85
2022/05/04 03:05:23;;;;;;;12.65;7.47;;;7.00;99.90;;;;;;5038578;28;20032;-84
2022/05/04 03:07:49;;;;;;;10.32;6.88;;;7.00;99.90;;;;;;5039251;28;20100;-83
2022/05/04 03:10:15;;;;;;;16.77;7.32;;;7.00;99.90;;;;;;5048654;28;20507;-83
2022/05/04 03:12:41;;;;;;;13.65;7.00;;;7.00;99.90;;;;;;5058112;28;20032;-82
2022/05/04 03:15:07;;;;;;;15.50;6.53;;;6.90;99.90;;;;;;5057186;28;20471;-80
2022/05/04 03:17:34;;;;;;;13.48;6.70;;;6.90;99.90;;;;;;5039194;28;20116;-82
2022/05/04 03:20:00;;;;;;;11.35;6.03;;;6.90;99.90;;;;;;5057519;28;20098;-81
2022/05/04 03:22:26;;;;;;;13.90;7.07;;;6.90;99.90;;;;;;5038524;28;20155;-81
2022/05/04 03:24:52;;;;;;;14.18;8.35;;;6.80;99.90;;;;;;5056201;28;20055;-80
2022/05/04 03:27:18;;;;;;;51.00;29.10;;;6.70;99.90;;;;;;5057497;28;20036;-80
2022/05/04 03:29:43;;;;;;;44.83;28.08;;;6.70;99.90;;;;;;5056381;28;20025;-81
2022/05/04 03:32:09;;;;;;;33.67;20.38;;;6.70;99.90;;;;;;5038463;28;20025;-81
2022/05/04 03:34:35;;;;;;;23.52;12.88;;;6.70;99.90;;;;;;5037582;28;20086;-82
2022/05/04 03:37:01;;;;;;;17.90;10.13;;;6.70;99.90;;;;;;5055695;28;20092;-80
2022/05/04 03:39:27;;;;;;;37.88;25.10;;;6.60;99.90;;;;;;5056765;28;20512;-81
2022/05/04 03:41:53;;;;;;;33.63;20.65;;;6.60;99.90;;;;;;5038034;28;20095;-80
2022/05/04 03:44:18;;;;;;;39.70;23.13;;;6.50;99.90;;;;;;5038270;28;20468;-83
2022/05/04 03:46:49;;;;;;;362.40;187.23;;;6.40;99.90;;;;;;5056591;28;20047;-82
2022/05/04 03:49:17;;;;;;;595.30;332.30;;;6.40;99.90;;;;;;5061493;28;20119;-80
2022/05/04 03:51:44;;;;;;;196.45;98.18;;;6.40;99.90;;;;;;5061232;28;20021;-81
2022/05/04 03:54:10;;;;;;;225.57;117.72;;;6.40;99.90;;;;;;5042195;28;20036;-80
2022/05/04 03:56:37;;;;;;;173.88;100.70;;;6.40;99.90;;;;;;5060618;28;20096;-80
2022/05/04 03:59:03;;;;;;;70.65;42.78;;;6.40;99.90;;;;;;5042759;28;20123;-80
2022/05/04 04:01:29;;;;;;;188.77;99.45;;;6.40;99.90;;;;;;5061121;28;20417;-81
2022/05/04 04:03:55;;;;;;;134.25;68.38;;;6.40;99.90;;;;;;5042862;28;20049;-80
2022/05/04 04:06:21;;;;;;;37.60;18.85;;;6.30;99.90;;;;;;5043403;28;20029;-80
2022/05/04 04:08:48;;;;;;;21.67;11.65;;;6.40;99.90;;;;;;5062803;28;20045;-81
2022/05/04 04:11:13;;;;;;;15.73;9.20;;;6.30;99.90;;;;;;5044184;28;20136;-82
2022/05/04 04:13:39;;;;;;;15.85;8.30;;;6.30;99.90;;;;;;5063137;28;20045;-83
2022/05/04 04:16:05;;;;;;;22.65;8.90;;;6.30;99.90;;;;;;5063764;28;20017;-82
2022/05/04 04:18:30;;;;;;;19.60;8.43;;;6.20;99.90;;;;;;5060380;28;20031;-80
2022/05/04 04:23:41;;;;;;;23.08;9.23;;;6.30;99.90;;;;;;5060005;28;20408;-80
2022/05/04 04:26:08;;;;;;;18.42;8.45;;;6.30;99.90;;;;;;5042233;28;20021;-82
2022/05/04 04:28:35;;;;;;;12.25;7.13;;;6.30;99.90;;;;;;5059751;28;20469;-82
2022/05/04 04:31:02;;;;;;;17.88;7.78;;;6.30;99.90;;;;;;5059815;28;20029;-83
2022/05/04 04:33:29;;;;;;;19.23;9.32;;;6.30;99.90;;;;;;5041451;28;20079;-82
2022/05/04 04:35:58;;;;;;;16.48;9.00;;;6.30;99.90;;;;;;5041730;28;20048;-81
2022/05/04 04:38:24;;;;;;;21.10;8.68;;;6.40;99.90;;;;;;5041817;28;20154;-82
2022/05/04 04:40:50;;;;;;;19.45;8.93;;;6.50;99.90;;;;;;5041704;28;20029;-82
2022/05/04 04:43:16;;;;;;;20.50;8.63;;;6.50;99.90;;;;;;5042061;28;20028;-81
2022/05/04 04:45:46;;;;;;;20.33;9.95;;;6.50;99.90;;;;;;5041570;28;20025;-81
2022/05/04 04:48:12;;;;;;;19.10;8.95;;;6.60;99.90;;;;;;5060673;28;20108;-81
2022/05/04 04:50:38;;;;;;;24.27;11.65;;;6.60;99.90;;;;;;5060380;28;20047;-82
2022/05/04 04:53:03;;;;;;;17.70;8.80;;;6.70;99.90;;;;;;5041329;28;20021;-81
2022/05/04 04:55:29;;;;;;;21.92;9.20;;;6.70;99.90;;;;;;5041295;28;20440;-80
2022/05/04 04:57:55;;;;;;;21.00;8.27;;;6.80;99.90;;;;;;5059827;28;20024;-80
2022/05/04 05:00:21;;;;;;;16.77;8.52;;;6.80;99.90;;;;;;5059991;28;20021;-80
2022/05/04 05:02:47;;;;;;;22.40;9.00;;;6.90;99.90;;;;;;5042853;28;20025;-80
2022/05/04 05:05:13;;;;;;;19.70;8.93;;;6.90;99.90;;;;;;5060324;28;20024;-82
2022/05/04 05:07:38;;;;;;;22.77;9.27;;;7.00;99.90;;;;;;5060038;28;20037;-80
2022/05/04 05:10:05;;;;;;;18.75;9.57;;;7.00;99.90;;;;;;5041265;28;20028;-80
2022/05/04 05:12:32;;;;;;;27.90;9.15;;;7.10;99.90;;;;;;5041997;28;20036;-81
2022/05/04 05:17:42;;;;;;;19.30;7.43;;;7.30;99.90;;;;;;5060013;28;20035;-81
2022/05/04 05:20:08;;;;;;;20.38;9.00;;;7.50;99.90;;;;;;5042187;28;20024;-82
2022/05/04 05:22:34;;;;;;;16.77;7.75;;;7.70;99.90;;;;;;5059983;28;20112;-83
2022/05/04 05:25:01;;;;;;;20.65;9.05;;;7.80;99.90;;;;;;5060450;28;20056;-83
2022/05/04 05:27:29;;;;;;;18.52;7.65;;;7.90;99.90;;;;;;5042059;28;20517;-81
2022/05/04 05:29:55;;;;;;;16.23;8.52;;;8.00;99.90;;;;;;5060751;28;20036;-80
2022/05/04 05:32:21;;;;;;;16.38;7.53;;;8.20;99.90;;;;;;5059128;28;20369;-80
2022/05/04 05:34:46;;;;;;;15.98;8.38;;;8.30;99.90;;;;;;5059742;28;20089;-81
2022/05/04 05:37:13;;;;;;;19.13;7.45;;;8.40;99.90;;;;;;5041794;28;20029;-81
2022/05/04 05:39:39;;;;;;;21.73;7.90;;;8.60;99.90;;;;;;5059119;28;20021;-81
2022/05/04 05:42:05;;;;;;;19.02;8.15;;;8.80;99.90;;;;;;5041606;28;20312;-83
2022/05/04 05:44:31;;;;;;;22.55;7.40;;;8.90;99.90;;;;;;5042608;28;20515;-83
2022/05/04 05:46:56;;;;;;;17.58;7.47;;;9.10;99.90;;;;;;5060950;28;20025;-82
2022/05/04 05:49:22;;;;;;;12.55;6.97;;;9.20;99.90;;;;;;5040960;28;20043;-83
2022/05/04 05:51:48;;;;;;;21.05;7.90;;;9.40;99.90;;;;;;5041111;28;20036;-80
2022/05/04 05:54:14;;;;;;;14.27;7.20;;;9.50;99.90;;;;;;5058688;28;20575;-81
2022/05/04 05:56:40;;;;;;;15.65;7.57;;;9.70;99.90;;;;;;5040182;28;20053;-82
2022/05/04 05:59:05;;;;;;;18.17;7.70;;;9.90;99.90;;;;;;5041021;28;20412;-82
2022/05/04 06:01:34;;;;;;;14.13;7.15;;;10.00;99.90;;;;;;5058904;28;20076;-80
2022/05/04 06:04:00;;;;;;;18.83;7.57;;;10.10;99.90;;;;;;5040765;28;20116;-83
2022/05/04 06:06:26;;;;;;;20.73;7.72;;;10.20;99.90;;;;;;5058238;28;20064;-81
2022/05/04 06:08:52;;;;;;;14.70;6.72;;;10.30;99.90;;;;;;5057763;28;20036;-82
2022/05/04 06:11:18;;;;;;;15.68;7.45;;;10.40;99.90;;;;;;5039712;28;20068;-81
2022/05/04 06:13:44;;;;;;;13.98;6.38;;;10.70;99.90;;;;;;5058367;28;20508;-81
2022/05/04 06:16:09;;;;;;;17.25;6.90;;;10.90;99.90;;;;;;5040328;28;20068;-82
2022/05/04 06:18:35;;;;;;;19.35;7.57;;;11.20;99.90;;;;;;5041416;28;20036;-81
2022/05/04 06:21:01;;;;;;;12.55;7.13;;;11.30;99.90;;;;;;5061221;28;20025;-81
2022/05/04 06:23:26;;;;;;;22.33;7.60;;;11.50;99.90;;;;;;5047027;28;20029;-80
2022/05/04 06:25:52;;;;;;;13.25;7.22;;;11.50;99.90;;;;;;5064321;28;20036;-83
2022/05/04 06:28:17;;;;;;;16.48;7.70;;;11.60;99.90;;;;;;5071368;28;20029;-83
2022/05/04 06:36:11;;;;;;;16.23;7.00;;;12.00;99.90;;;;;;5062057;28;20043;-83
2022/05/04 06:38:37;;;;;;;16.83;7.45;;;12.20;99.90;;;;;;5062650;28;20040;-80
2022/05/04 06:41:05;;;;;;;15.30;7.03;;;12.40;99.90;;;;;;5044058;28;20021;-82
2022/05/04 06:43:31;;;;;;;17.00;6.75;;;12.60;99.90;;;;;;5045644;28;20021;-81
2022/05/04 06:45:57;;;;;;;12.82;7.28;;;12.80;99.90;;;;;;5043097;28;20078;-81
2022/05/04 06:48:23;;;;;;;18.95;7.45;;;12.80;99.90;;;;;;5044026;28;20124;-81
2022/05/04 06:50:48;;;;;;;15.90;7.25;;;12.90;99.90;;;;;;5044188;28;20036;-83
2022/05/04 06:53:14;;;;;;;13.70;7.50;;;13.00;99.90;;;;;;5062483;28;20047;-81
2022/05/04 06:55:40;;;;;;;15.02;7.68;;;13.30;99.90;;;;;;5062105;28;20021;-81
2022/05/04 06:58:05;;;;;;;15.57;7.40;;;13.50;99.90;;;;;;5043275;28;20484;-82
2022/05/04 07:00:31;;;;;;;20.50;7.20;;;13.80;99.90;;;;;;5044691;28;20053;-82
2022/05/04 07:02:57;;;;;;;17.13;7.28;;;13.80;99.90;;;;;;5062622;28;20025;-81
2022/05/04 07:05:22;;;;;;;15.35;7.00;;;13.80;99.90;;;;;;5043066;28;20477;-83
2022/05/04 07:07:48;;;;;;;14.40;7.28;;;13.90;99.90;;;;;;5043364;28;20028;-82
2022/05/04 07:10:14;;;;;;;15.63;7.60;;;14.00;99.90;;;;;;5061709;28;20017;-80
2022/05/04 07:12:40;;;;;;;19.20;8.60;;;14.30;99.90;;;;;;5060289;28;20028;-83
2022/05/04 07:15:05;;;;;;;24.63;8.02;;;14.60;99.90;;;;;;5041625;28;20025;-81
2022/05/04 07:17:31;;;;;;;15.88;7.57;;;14.90;99.90;;;;;;5040578;28;20040;-81
2022/05/04 07:19:57;;;;;;;23.02;7.97;;;14.90;99.90;;;;;;5041707;28;20082;-82
2022/05/04 07:22:23;;;;;;;17.50;7.05;;;14.90;99.90;;;;;;5060741;28;20089;-85
2022/05/04 07:24:49;;;;;;;15.18;7.93;;;15.00;99.90;;;;;;5059606;28;20021;-81
2022/05/04 07:27:15;;;;;;;14.00;7.32;;;15.10;99.90;;;;;;5059682;28;20104;-81
2022/05/04 07:29:42;;;;;;;12.73;6.97;;;15.30;99.90;;;;;;5041922;28;20032;-83
2022/05/04 07:32:08;;;;;;;21.23;7.57;;;15.60;99.90;;;;;;5043191;28;20021;-82
2022/05/04 07:34:35;;;;;;;16.80;8.20;;;15.80;99.90;;;;;;5060226;28;20067;-82
2022/05/04 07:37:01;;;;;;;15.48;7.80;;;16.00;99.90;;;;;;5041876;28;20027;-82
2022/05/04 07:42:24;;;;;;;17.42;7.22;;;16.10;98.90;;;;;;5059891;28;20454;-81
2022/05/04 07:44:56;;;;;;;16.00;8.50;;;16.30;97.60;;;;;;5043265;28;20498;-83
2022/05/04 07:47:22;;;;;;;16.17;7.75;;;16.30;96.40;;;;;;5061502;28;20025;-82
2022/05/04 07:49:48;;;;;;;17.02;8.38;;;16.40;96.70;;;;;;5062721;28;20025;-82
2022/05/04 07:52:15;;;;;;;20.77;7.90;;;16.60;96.90;;;;;;5049890;28;20067;-81
2022/05/04 07:54:40;;;;;;;17.90;8.55;;;16.60;95.70;;;;;;5048706;28;20035;-84
2022/05/04 07:57:06;;;;;;;15.93;8.50;;;16.70;96.80;;;;;;5061329;28;20024;-81
2022/05/04 07:59:31;;;;;;;20.60;8.07;;;17.00;94.60;;;;;;5041841;28;20029;-81
2022/05/04 08:04:41;;;;;;;19.83;8.93;;;17.30;92.80;;;;;;5062442;28;20036;-82
2022/05/04 08:07:07;;;;;;;16.70;8.30;;;17.10;92.00;;;;;;5041925;28;20033;-82
2022/05/04 08:09:36;;;;;;;16.73;8.60;;;17.10;91.90;;;;;;5060161;28;20139;-82
2022/05/04 08:12:06;;;;;;;15.30;8.18;;;17.10;91.80;;;;;;5060221;28;20021;-82
2022/05/04 08:14:33;;;;;;;16.83;8.30;;;17.20;93.20;;;;;;5070022;28;20013;-83
2022/05/04 08:16:59;;;;;;;17.63;8.10;;;17.30;90.80;;;;;;5074266;28;20048;-81
2022/05/04 08:19:25;;;;;;;22.65;8.80;;;17.30;90.40;;;;;;5066552;28;20498;-82
2022/05/04 08:21:51;;;;;;;15.98;8.30;;;17.40;89.40;;;;;;5067859;28;20081;-80
2022/05/04 08:24:17;;;;;;;23.15;8.98;;;17.60;89.10;;;;;;5057737;28;20025;-79
2022/05/04 08:26:43;;;;;;;20.48;9.55;;;17.90;87.80;;;;;;5055975;28;20036;-81
2022/05/04 08:29:09;;;;;;;21.33;9.13;;;17.90;86.70;;;;;;5064823;28;20052;-80
2022/05/04 08:31:36;;;;;;;16.98;8.50;;;17.90;89.00;;;;;;5059904;28;20021;-84
2022/05/04 08:34:01;;;;;;;21.75;8.27;;;17.90;87.00;;;;;;5061816;28;20052;-84
2022/05/04 08:36:27;;;;;;;17.73;9.20;;;17.80;87.60;;;;;;5046477;28;20025;-83
2022/05/04 08:38:53;;;;;;;16.17;8.57;;;17.70;86.80;;;;;;5070689;28;20036;-82
2022/05/04 08:41:18;;;;;;;21.73;8.48;;;17.80;87.10;;;;;;5047271;28;20048;-80
2022/05/04 08:43:47;;;;;;;14.27;7.72;;;18.10;86.80;;;;;;5064890;28;20038;-83
2022/05/04 08:46:17;;;;;;;17.55;8.15;;;18.40;85.00;;;;;;5061272;28;20051;-83
2022/05/04 08:48:43;;;;;;;21.25;8.02;;;18.60;83.90;;;;;;5060917;28;20021;-83
2022/05/04 08:51:10;;;;;;;15.85;7.90;;;18.90;81.60;;;;;;5043229;28;20103;-82
2022/05/04 08:53:37;;;;;;;16.73;8.27;;;19.10;81.70;;;;;;5042968;28;20032;-85
2022/05/04 08:56:03;;;;;;;17.88;8.70;;;19.20;79.50;;;;;;5061092;28;20489;-84
2022/05/04 08:58:30;;;;;;;13.95;8.25;;;19.20;80.50;;;;;;5042655;28;20028;-83
2022/05/04 09:00:56;;;;;;;18.27;8.57;;;19.40;77.30;;;;;;5060011;28;20025;-84
2022/05/04 09:03:22;;;;;;;20.17;8.80;;;19.30;77.70;;;;;;5060321;28;20158;-83
2022/05/04 12:58:47;;;;;;;15.60;10.48;;;22.70;58.10;;;;;;5016137;28;20049;-84
2022/05/04 13:01:13;;;;;;;18.15;10.48;;;22.70;58.00;;;;;;5002287;28;20033;-87
2022/05/04 13:03:40;;;;;;;16.92;10.55;;;22.70;60.20;;;;;;5019133;28;20495;-86
2022/05/04 13:06:05;;;;;;;20.80;12.45;;;23.10;58.70;;;;;;5000735;28;20029;-90
2022/05/04 13:08:31;;;;;;;15.32;12.30;;;22.80;57.50;;;;;;5001670;28;20022;-89
2022/05/04 13:10:57;;;;;;;15.45;11.48;;;22.10;58.20;;;;;;5000725;28;20034;-90
2022/05/04 13:13:25;;;;;;;21.35;12.63;;;21.60;61.30;;;;;;5000146;28;20026;-85
2022/05/04 13:15:51;;;;;;;20.00;12.50;;;21.30;59.90;;;;;;5019967;28;20470;-86
2022/05/04 13:18:21;;;;;;;18.48;12.20;;;21.30;59.90;;;;;;5002756;28;20040;-86
2022/05/04 13:20:48;;;;;;;14.70;11.10;;;21.60;59.50;;;;;;5000729;28;20084;-86
2022/05/04 13:23:15;;;;;;;18.98;11.40;;;22.00;59.40;;;;;;5000532;28;20112;-90
2022/05/04 13:25:40;;;;;;;13.13;9.55;;;22.30;58.00;;;;;;5019021;28;20022;-82
2022/05/04 13:28:06;;;;;;;14.88;10.77;;;22.60;58.70;;;;;;5007082;28;20366;-88
2022/05/04 13:30:32;;;;;;;16.67;10.07;;;22.80;58.00;;;;;;5014412;28;20018;-80
2022/05/04 13:32:58;;;;;;;16.17;10.38;;;23.10;56.90;;;;;;5020998;28;20018;-84
2022/05/04 13:35:24;;;;;;;11.30;9.25;;;22.90;55.70;;;;;;5006498;28;20025;-85
2022/05/04 13:37:50;;;;;;;12.05;9.05;;;22.10;57.50;;;;;;4998453;28;20022;-85
2022/05/04 13:40:16;;;;;;;12.15;9.27;;;21.20;59.60;;;;;;4997941;28;20052;-85
2022/05/04 13:42:48;;;;;;;11.52;8.35;;;20.90;59.80;;;;;;4998357;28;20030;-83
2022/05/04 13:45:14;;;;;;;15.27;10.32;;;21.20;61.10;;;;;;4998130;28;20032;-85
2022/05/04 13:47:40;;;;;;;17.08;9.98;;;21.50;59.60;;;;;;4997589;28;20022;-85
2022/05/04 13:53:14;;;;;;;17.05;9.63;;;21.60;57.30;;;;;;4998956;28;20022;-86
2022/05/04 13:53:15;;;;;;;11.70;8.80;;;21.80;57.00;;;;;;5017411;28;20041;-84
2022/05/04 13:55:41;;;;;;;10.55;8.48;;;21.90;56.80;;;;;;4998139;28;20113;-86
2022/05/04 13:58:07;;;;;;;10.93;7.85;;;22.00;55.40;;;;;;4998235;28;20124;-86
2022/05/04 14:00:32;;;;;;;13.98;8.90;;;22.00;55.00;;;;;;4997414;28;20052;-86
2022/05/04 14:02:58;;;;;;;14.00;7.97;;;21.90;54.70;;;;;;4998378;28;20030;-85
2022/05/04 14:05:24;;;;;;;13.68;8.63;;;21.60;56.90;;;;;;4998163;28;20018;-86
2022/05/04 14:07:52;;;;;;;15.70;7.75;;;21.40;56.10;;;;;;5003045;28;20022;-84
2022/05/04 14:10:18;;;;;;;12.30;7.63;;;21.40;56.20;;;;;;5000843;28;20101;-85
2022/05/04 14:12:43;;;;;;;13.30;7.03;;;21.70;57.10;;;;;;5000828;28;20083;-85
2022/05/04 14:15:09;;;;;;;14.10;7.68;;;21.80;54.60;;;;;;4999150;28;20112;-87
2022/05/04 14:17:35;;;;;;;10.05;7.03;;;21.80;52.90;;;;;;5016674;28;20146;-87
2022/05/04 14:20:06;;;;;;;12.02;6.88;;;21.70;54.00;;;;;;4999080;28;20022;-84
2022/05/04 14:22:32;;;;;;;11.15;6.93;;;21.60;54.80;;;;;;4996894;28;20026;-87
2022/05/04 14:24:57;;;;;;;14.27;8.20;;;21.30;54.80;;;;;;4997291;28;20029;-86
2022/05/04 14:27:23;;;;;;;11.90;6.45;;;21.10;55.80;;;;;;5017991;28;20022;-85
2022/05/04 14:29:49;;;;;;;15.32;6.90;;;21.20;55.90;;;;;;4998767;28;20151;-85
2022/05/04 14:32:18;;;;;;;8.32;6.32;;;21.30;55.40;;;;;;4997202;28;20054;-86
2022/05/04 14:34:43;;;;;;;10.40;6.43;;;21.30;54.80;;;;;;5000108;28;20079;-88
2022/05/04 14:37:09;;;;;;;8.63;5.47;;;21.30;55.40;;;;;;5003205;28;20429;-84
2022/05/04 14:39:35;;;;;;;8.57;5.47;;;21.10;56.80;;;;;;5017865;28;20045;-84
2022/05/04 14:42:01;;;;;;;11.35;5.93;;;20.70;56.70;;;;;;5002279;28;20103;-87
2022/05/04 14:44:26;;;;;;;11.93;5.43;;;20.10;55.80;;;;;;5004902;28;20385;-87
2022/05/04 14:46:55;;;;;;;7.43;4.47;;;20.00;57.00;;;;;;5004318;28;20033;-86
2022/05/04 14:49:21;;;;;;;13.05;5.28;;;20.10;58.70;;;;;;4997478;28;20026;-85
2022/05/04 14:51:48;;;;;;;7.38;3.88;;;20.40;56.60;;;;;;4997106;28;20382;-84
2022/05/04 14:54:13;;;;;;;8.93;4.70;;;20.60;56.00;;;;;;4997319;28;20025;-85
2022/05/04 14:56:39;;;;;;;10.50;3.70;;;20.90;55.40;;;;;;4997432;28;20022;-82
2022/05/04 14:59:04;;;;;;;9.98;4.53;;;21.00;53.50;;;;;;4998181;28;20034;-85
2022/05/04 15:01:30;;;;;;;8.88;4.47;;;21.00;54.30;;;;;;4996680;28;20040;-88
2022/05/04 15:06:40;;;;;;;7.95;3.60;;;20.70;52.00;;;;;;5060575;22;20036;-83
2022/05/04 15:09:06;;;;;;;9.60;4.07;;;20.40;53.10;;;;;;5036669;28;20489;-82
2022/05/04 15:11:32;;;;;;;8.57;3.50;;;20.20;52.10;;;;;;5018411;28;20021;-82
2022/05/04 15:13:58;;;;;;;11.50;3.75;;;20.00;53.00;;;;;;5036191;28;20044;-82
2022/05/04 15:16:24;;;;;;;14.30;4.55;;;20.00;53.60;;;;;;5018656;28;20407;-80
2022/05/04 15:18:50;;;;;;;9.90;4.03;;;20.00;53.20;;;;;;5036244;28;20473;-82
2022/05/04 15:21:16;;;;;;;9.95;3.70;;;19.90;53.40;;;;;;5036425;28;20037;-82
2022/05/04 15:23:43;;;;;;;9.63;3.28;;;19.80;53.40;;;;;;5037714;28;20097;-81
2022/05/04 15:26:09;;;;;;;8.52;3.35;;;19.80;53.20;;;;;;5021027;28;20107;-83
2022/05/04 15:28:34;;;;;;;7.65;3.28;;;19.80;52.80;;;;;;5018173;28;20021;-82
2022/05/04 15:31:02;;;;;;;4.70;2.83;;;19.60;51.10;;;;;;5018747;28;20095;-81
2022/05/04 15:33:28;;;;;;;7.00;3.15;;;19.50;52.40;;;;;;5019768;28;20116;-82
2022/05/04 15:35:54;;;;;;;5.28;2.90;;;19.40;51.60;;;;;;5019811;28;20472;-83
2022/05/04 15:38:19;;;;;;;7.63;2.70;;;19.40;53.10;;;;;;5037312;28;20052;-82
2022/05/04 15:40:45;;;;;;;9.13;3.10;;;19.40;51.80;;;;;;5019372;28;20036;-83
2022/05/04 15:43:10;;;;;;;6.82;3.47;;;19.30;52.00;;;;;;5035989;28;20053;-81
2022/05/04 15:45:36;;;;;;;4.60;2.67;;;19.10;52.60;;;;;;5036042;28;20040;-81
2022/05/04 15:48:02;;;;;;;6.15;3.10;;;19.10;54.10;;;;;;5037017;28;20025;-81
2022/05/04 15:50:28;;;;;;;7.72;2.55;;;19.00;54.00;;;;;;5018445;28;20099;-83
2022/05/04 15:52:54;;;;;;;4.53;2.30;;;19.00;54.90;;;;;;5018257;28;20093;-80
2022/05/04 15:55:20;;;;;;;4.53;2.40;;;18.90;55.00;;;;;;5036681;28;20022;-83
2022/05/04 15:57:45;;;;;;;8.57;2.97;;;18.80;55.90;;;;;;5019417;28;20022;-81
2022/05/04 16:00:12;;;;;;;11.23;3.83;;;18.70;56.20;;;;;;5037620;28;20430;-82
2022/05/04 16:05:23;;;;;;;13.63;4.00;;;18.30;57.30;;;;;;5037623;28;20064;-82
2022/05/04 16:07:49;;;;;;;8.98;3.20;;;18.10;57.10;;;;;;5018382;28;20041;-81
2022/05/04 16:10:15;;;;;;;9.40;4.00;;;18.10;59.50;;;;;;5019459;28;20067;-81
2022/05/04 16:12:42;;;;;;;7.88;3.38;;;18.00;59.70;;;;;;5018093;28;20128;-82
2022/05/04 16:15:08;;;;;;;9.07;3.17;;;18.00;57.60;;;;;;5036205;28;20017;-81
2022/05/04 16:23:04;;;;;;;8.95;3.35;;;17.70;57.80;;;;;;5037087;28;20159;-82
2022/05/04 16:25:30;;;;;;;5.38;2.90;;;17.70;58.00;;;;;;5037200;28;20064;-80
2022/05/04 16:27:56;;;;;;;8.00;3.00;;;17.70;57.50;;;;;;5039311;28;20028;-83
2022/05/04 16:30:22;;;;;;;6.82;3.00;;;17.60;57.20;;;;;;5041760;28;20026;-80
2022/05/04 16:32:47;;;;;;;4.95;3.00;;;17.50;58.60;;;;;;5023326;28;20037;-82
2022/05/04 16:35:13;;;;;;;9.02;3.22;;;17.40;58.40;;;;;;5036736;28;20060;-82
2022/05/04 16:37:38;;;;;;;6.57;2.90;;;17.40;58.40;;;;;;5035845;28;20037;-83
2022/05/04 16:40:04;;;;;;;6.75;3.35;;;17.30;58.10;;;;;;5036661;28;20034;-82
2022/05/04 16:42:30;;;;;;;5.38;2.70;;;17.30;57.80;;;;;;5036328;28;20519;-82
2022/05/04 16:44:56;;;;;;;6.03;3.00;;;17.30;58.40;;;;;;5036948;28;20049;-80
2022/05/04 16:47:21;;;;;;;7.63;3.33;;;17.20;58.70;;;;;;5019093;28;20500;-80
2022/05/04 16:49:47;;;;;;;6.68;3.55;;;17.10;58.30;;;;;;5019038;28;20338;-82
2022/05/04 16:52:13;;;;;;;8.73;3.53;;;17.00;59.10;;;;;;5037773;28;20041;-82
2022/05/04 16:54:38;;;;;;;5.65;3.40;;;17.00;58.60;;;;;;5019931;28;20034;-81
2022/05/04 16:57:04;;;;;;;12.18;4.68;;;16.90;59.10;;;;;;5022645;28;20033;-81
2022/05/04 16:59:31;;;;;;;8.80;3.45;;;16.90;59.20;;;;;;5022823;28;20412;-82
2022/05/04 17:01:57;;;;;;;6.15;3.10;;;16.90;58.80;;;;;;5022596;28;20025;-82